sensor_id;sensor_type;location;lat;lon;timestamp;P1;P2;P0
42410;PMS5003;28056;51.112;0.984;2023-06-22T00:04:52;17;16;
42410;PMS5003;28056;51.112;0.984;2023-06-22T00:07:20;13;13;
42410;PMS5003;28056;51.112;0.984;2023-06-22T00:09:47;14;14;
42410;PMS5003;28056;51.112;0.984;2023-06-22T00:12:15;19;18;
42410;PMS5003;28056;51.112;0.984;2023-06-22T00:14:42;15;15;
42410;PMS5003;28056;51.112;0.984;2023-06-22T00:17:10;14;13;
42410;PMS5003;28056;51.112;0.984;2023-06-22T00:19:37;18;15;
42410;PMS5003;28056;51.112;0.984;2023-06-22T00:22:05;16;15;
42410;PMS5003;28056;51.112;0.984;2023-06-22T00:24:32;18;17;
42410;PMS5003;28056;51.112;0.984;2023-06-22T00:27:00;15;14;
42410;PMS5003;28056;51.112;0.984;2023-06-22T00:29:28;15;15;
42410;PMS5003;28056;51.112;0.984;2023-06-22T00:31:55;16;15;
42410;PMS5003;28056;51.112;0.984;2023-06-22T00:34:23;16;16;
42410;PMS5003;28056;51.112;0.984;2023-06-22T00:36:50;14;14;
42410;PMS5003;28056;51.112;0.984;2023-06-22T00:39:17;17;15;
42410;PMS5003;28056;51.112;0.984;2023-06-22T00:41:45;12;12;
42410;PMS5003;28056;51.112;0.984;2023-06-22T00:44:12;14;14;
42410;PMS5003;28056;51.112;0.984;2023-06-22T00:46:39;15;14;
42410;PMS5003;28056;51.112;0.984;2023-06-22T00:49:07;17;16;
42410;PMS5003;28056;51.112;0.984;2023-06-22T00:51:35;17;16;
42410;PMS5003;28056;51.112;0.984;2023-06-22T00:54:09;15;13;
42410;PMS5003;28056;51.112;0.984;2023-06-22T00:56:36;16;15;
42410;PMS5003;28056;51.112;0.984;2023-06-22T00:59:04;13;13;
42410;PMS5003;28056;51.112;0.984;2023-06-22T01:01:32;13;13;
42410;PMS5003;28056;51.112;0.984;2023-06-22T01:03:59;17;17;
42410;PMS5003;28056;51.112;0.984;2023-06-22T01:06:29;14;12;
42410;PMS5003;28056;51.112;0.984;2023-06-22T01:09:05;14;14;
42410;PMS5003;28056;51.112;0.984;2023-06-22T01:11:39;13;13;
42410;PMS5003;28056;51.112;0.984;2023-06-22T01:14:12;16;16;
42410;PMS5003;28056;51.112;0.984;2023-06-22T01:16:43;15;13;
42410;PMS5003;28056;51.112;0.984;2023-06-22T01:19:24;15;10;
42410;PMS5003;28056;51.112;0.984;2023-06-22T01:22:02;13;12;
42410;PMS5003;28056;51.112;0.984;2023-06-22T01:24:32;14;13;
42410;PMS5003;28056;51.112;0.984;2023-06-22T01:27:12;10;10;
42410;PMS5003;28056;51.112;0.984;2023-06-22T01:29:51;13;13;
42410;PMS5003;28056;51.112;0.984;2023-06-22T01:32:22;17;10;
42410;PMS5003;28056;51.112;0.984;2023-06-22T01:34:50;16;14;
42410;PMS5003;28056;51.112;0.984;2023-06-22T01:37:18;12;12;
42410;PMS5003;28056;51.112;0.984;2023-06-22T01:39:45;16;10;
42410;PMS5003;28056;51.112;0.984;2023-06-22T01:42:13;12;9;
42410;PMS5003;28056;51.112;0.984;2023-06-22T01:44:40;13;10;
42410;PMS5003;28056;51.112;0.984;2023-06-22T01:47:08;14;13;
42410;PMS5003;28056;51.112;0.984;2023-06-22T01:49:36;14;14;
42410;PMS5003;28056;51.112;0.984;2023-06-22T01:52:04;12;9;
42410;PMS5003;28056;51.112;0.984;2023-06-22T01:54:32;15;12;
42410;PMS5003;28056;51.112;0.984;2023-06-22T01:56:59;10;10;
42410;PMS5003;28056;51.112;0.984;2023-06-22T01:59:32;10;9;
42410;PMS5003;28056;51.112;0.984;2023-06-22T02:02:04;12;9;
42410;PMS5003;28056;51.112;0.984;2023-06-22T02:04:36;16;15;
42410;PMS5003;28056;51.112;0.984;2023-06-22T02:07:09;12;12;
42410;PMS5003;28056;51.112;0.984;2023-06-22T02:09:41;10;10;
42410;PMS5003;28056;51.112;0.984;2023-06-22T02:12:11;16;13;
42410;PMS5003;28056;51.112;0.984;2023-06-22T02:14:44;12;12;
42410;PMS5003;28056;51.112;0.984;2023-06-22T02:17:12;15;13;
42410;PMS5003;28056;51.112;0.984;2023-06-22T02:19:41;17;14;
42410;PMS5003;28056;51.112;0.984;2023-06-22T02:22:08;15;14;
42410;PMS5003;28056;51.112;0.984;2023-06-22T02:24:35;14;14;
42410;PMS5003;28056;51.112;0.984;2023-06-22T02:27:03;17;14;
42410;PMS5003;28056;51.112;0.984;2023-06-22T02:29:31;14;12;
42410;PMS5003;28056;51.112;0.984;2023-06-22T02:31:59;16;14;
42410;PMS5003;28056;51.112;0.984;2023-06-22T02:34:26;18;16;
42410;PMS5003;28056;51.112;0.984;2023-06-22T02:36:54;14;14;
42410;PMS5003;28056;51.112;0.984;2023-06-22T02:39:23;15;14;
42410;PMS5003;28056;51.112;0.984;2023-06-22T02:41:51;15;12;
42410;PMS5003;28056;51.112;0.984;2023-06-22T02:44:20;12;12;
42410;PMS5003;28056;51.112;0.984;2023-06-22T02:46:47;12;12;
42410;PMS5003;28056;51.112;0.984;2023-06-22T02:49:15;12;11;
42410;PMS5003;28056;51.112;0.984;2023-06-22T02:51:44;14;13;
42410;PMS5003;28056;51.112;0.984;2023-06-22T02:54:13;13;13;
42410;PMS5003;28056;51.112;0.984;2023-06-22T02:56:40;12;12;
42410;PMS5003;28056;51.112;0.984;2023-06-22T02:59:08;13;13;
42410;PMS5003;28056;51.112;0.984;2023-06-22T03:01:36;11;11;
42410;PMS5003;28056;51.112;0.984;2023-06-22T03:04:13;14;13;
42410;PMS5003;28056;51.112;0.984;2023-06-22T03:06:40;14;11;
42410;PMS5003;28056;51.112;0.984;2023-06-22T03:09:08;14;14;
42410;PMS5003;28056;51.112;0.984;2023-06-22T03:11:36;13;13;
42410;PMS5003;28056;51.112;0.984;2023-06-22T03:14:03;11;11;
42410;PMS5003;28056;51.112;0.984;2023-06-22T03:16:30;16;16;
42410;PMS5003;28056;51.112;0.984;2023-06-22T03:18:58;15;14;
42410;PMS5003;28056;51.112;0.984;2023-06-22T03:21:26;14;14;
42410;PMS5003;28056;51.112;0.984;2023-06-22T03:23:55;18;13;
42410;PMS5003;28056;51.112;0.984;2023-06-22T03:26:27;12;12;
42410;PMS5003;28056;51.112;0.984;2023-06-22T03:28:55;12;12;
42410;PMS5003;28056;51.112;0.984;2023-06-22T03:31:22;15;15;
42410;PMS5003;28056;51.112;0.984;2023-06-22T03:33:50;11;11;
42410;PMS5003;28056;51.112;0.984;2023-06-22T03:36:17;15;15;
42410;PMS5003;28056;51.112;0.984;2023-06-22T03:38:45;16;15;
42410;PMS5003;28056;51.112;0.984;2023-06-22T03:41:13;11;11;
42410;PMS5003;28056;51.112;0.984;2023-06-22T03:43:41;12;12;
42410;PMS5003;28056;51.112;0.984;2023-06-22T03:46:08;14;14;
42410;PMS5003;28056;51.112;0.984;2023-06-22T03:48:36;13;13;
42410;PMS5003;28056;51.112;0.984;2023-06-22T03:51:03;13;13;
42410;PMS5003;28056;51.112;0.984;2023-06-22T03:53:31;12;12;
42410;PMS5003;28056;51.112;0.984;2023-06-22T03:55:59;12;9;
42410;PMS5003;28056;51.112;0.984;2023-06-22T03:58:27;13;12;
42410;PMS5003;28056;51.112;0.984;2023-06-22T04:00:54;14;12;
42410;PMS5003;28056;51.112;0.984;2023-06-22T04:03:21;13;13;
42410;PMS5003;28056;51.112;0.984;2023-06-22T04:05:49;13;13;
42410;PMS5003;28056;51.112;0.984;2023-06-22T04:08:15;15;13;
42410;PMS5003;28056;51.112;0.984;2023-06-22T04:10:43;15;12;
42410;PMS5003;28056;51.112;0.984;2023-06-22T04:13:11;11;11;
42410;PMS5003;28056;51.112;0.984;2023-06-22T04:15:38;11;11;
42410;PMS5003;28056;51.112;0.984;2023-06-22T04:18:06;14;14;
42410;PMS5003;28056;51.112;0.984;2023-06-22T04:20:33;12;11;
42410;PMS5003;28056;51.112;0.984;2023-06-22T04:23:01;14;14;
42410;PMS5003;28056;51.112;0.984;2023-06-22T04:25:28;16;16;
42410;PMS5003;28056;51.112;0.984;2023-06-22T04:27:56;16;14;
42410;PMS5003;28056;51.112;0.984;2023-06-22T04:30:24;12;12;
42410;PMS5003;28056;51.112;0.984;2023-06-22T04:32:51;12;11;
42410;PMS5003;28056;51.112;0.984;2023-06-22T04:35:19;14;11;
42410;PMS5003;28056;51.112;0.984;2023-06-22T04:37:46;13;11;
42410;PMS5003;28056;51.112;0.984;2023-06-22T04:40:13;12;11;
42410;PMS5003;28056;51.112;0.984;2023-06-22T04:42:41;22;14;
42410;PMS5003;28056;51.112;0.984;2023-06-22T04:45:09;13;12;
42410;PMS5003;28056;51.112;0.984;2023-06-22T04:47:37;16;16;
42410;PMS5003;28056;51.112;0.984;2023-06-22T04:50:05;12;12;
42410;PMS5003;28056;51.112;0.984;2023-06-22T04:52:32;13;11;
42410;PMS5003;28056;51.112;0.984;2023-06-22T04:54:59;12;11;
42410;PMS5003;28056;51.112;0.984;2023-06-22T04:57:27;14;14;
42410;PMS5003;28056;51.112;0.984;2023-06-22T04:59:54;19;14;
42410;PMS5003;28056;51.112;0.984;2023-06-22T05:02:22;16;15;
42410;PMS5003;28056;51.112;0.984;2023-06-22T05:04:49;19;16;
42410;PMS5003;28056;51.112;0.984;2023-06-22T05:07:16;12;12;
42410;PMS5003;28056;51.112;0.984;2023-06-22T05:09:44;14;14;
42410;PMS5003;28056;51.112;0.984;2023-06-22T05:12:12;13;11;
42410;PMS5003;28056;51.112;0.984;2023-06-22T05:14:38;16;15;
42410;PMS5003;28056;51.112;0.984;2023-06-22T05:17:06;16;15;
42410;PMS5003;28056;51.112;0.984;2023-06-22T05:19:34;19;16;
42410;PMS5003;28056;51.112;0.984;2023-06-22T05:22:01;17;16;
42410;PMS5003;28056;51.112;0.984;2023-06-22T05:24:28;13;11;
42410;PMS5003;28056;51.112;0.984;2023-06-22T05:26:56;17;15;
42410;PMS5003;28056;51.112;0.984;2023-06-22T05:29:23;14;13;
42410;PMS5003;28056;51.112;0.984;2023-06-22T05:31:51;15;15;
42410;PMS5003;28056;51.112;0.984;2023-06-22T05:34:18;15;15;
42410;PMS5003;28056;51.112;0.984;2023-06-22T05:36:46;13;13;
42410;PMS5003;28056;51.112;0.984;2023-06-22T05:39:13;14;13;
42410;PMS5003;28056;51.112;0.984;2023-06-22T05:41:42;14;14;
42410;PMS5003;28056;51.112;0.984;2023-06-22T05:44:10;14;13;
42410;PMS5003;28056;51.112;0.984;2023-06-22T05:46:39;12;12;
42410;PMS5003;28056;51.112;0.984;2023-06-22T05:49:07;20;15;
42410;PMS5003;28056;51.112;0.984;2023-06-22T05:51:34;15;15;
42410;PMS5003;28056;51.112;0.984;2023-06-22T05:54:01;17;15;
42410;PMS5003;28056;51.112;0.984;2023-06-22T05:56:29;13;13;
42410;PMS5003;28056;51.112;0.984;2023-06-22T05:58:56;17;16;
42410;PMS5003;28056;51.112;0.984;2023-06-22T06:01:24;16;14;
42410;PMS5003;28056;51.112;0.984;2023-06-22T06:03:51;19;15;
42410;PMS5003;28056;51.112;0.984;2023-06-22T06:06:19;14;14;
42410;PMS5003;28056;51.112;0.984;2023-06-22T06:08:46;15;14;
42410;PMS5003;28056;51.112;0.984;2023-06-22T06:11:14;14;14;
42410;PMS5003;28056;51.112;0.984;2023-06-22T06:13:41;14;13;
42410;PMS5003;28056;51.112;0.984;2023-06-22T06:16:09;15;12;
42410;PMS5003;28056;51.112;0.984;2023-06-22T06:18:37;14;13;
42410;PMS5003;28056;51.112;0.984;2023-06-22T06:21:04;17;17;
42410;PMS5003;28056;51.112;0.984;2023-06-22T06:23:31;16;14;
42410;PMS5003;28056;51.112;0.984;2023-06-22T06:25:59;14;14;
42410;PMS5003;28056;51.112;0.984;2023-06-22T06:28:26;16;15;
42410;PMS5003;28056;51.112;0.984;2023-06-22T06:30:54;16;14;
42410;PMS5003;28056;51.112;0.984;2023-06-22T06:33:21;14;12;
42410;PMS5003;28056;51.112;0.984;2023-06-22T06:35:48;18;18;
42410;PMS5003;28056;51.112;0.984;2023-06-22T06:38:15;19;15;
42410;PMS5003;28056;51.112;0.984;2023-06-22T06:40:43;16;13;
42410;PMS5003;28056;51.112;0.984;2023-06-22T06:43:10;11;11;
42410;PMS5003;28056;51.112;0.984;2023-06-22T06:45:37;19;17;
42410;PMS5003;28056;51.112;0.984;2023-06-22T06:48:05;14;11;
42410;PMS5003;28056;51.112;0.984;2023-06-22T06:50:33;14;13;
42410;PMS5003;28056;51.112;0.984;2023-06-22T06:53:00;14;13;
42410;PMS5003;28056;51.112;0.984;2023-06-22T06:55:28;14;13;
42410;PMS5003;28056;51.112;0.984;2023-06-22T06:57:55;11;11;
42410;PMS5003;28056;51.112;0.984;2023-06-22T07:00:23;13;12;
42410;PMS5003;28056;51.112;0.984;2023-06-22T07:02:51;14;14;
42410;PMS5003;28056;51.112;0.984;2023-06-22T07:05:19;14;13;
42410;PMS5003;28056;51.112;0.984;2023-06-22T07:07:46;17;17;
42410;PMS5003;28056;51.112;0.984;2023-06-22T07:10:14;17;15;
42410;PMS5003;28056;51.112;0.984;2023-06-22T07:12:41;12;12;
42410;PMS5003;28056;51.112;0.984;2023-06-22T07:15:09;13;13;
42410;PMS5003;28056;51.112;0.984;2023-06-22T07:17:37;17;15;
42410;PMS5003;28056;51.112;0.984;2023-06-22T07:20:06;17;16;
42410;PMS5003;28056;51.112;0.984;2023-06-22T07:22:33;13;13;
42410;PMS5003;28056;51.112;0.984;2023-06-22T07:25:00;11;11;
42410;PMS5003;28056;51.112;0.984;2023-06-22T07:27:27;15;13;
42410;PMS5003;28056;51.112;0.984;2023-06-22T07:29:55;16;16;
42410;PMS5003;28056;51.112;0.984;2023-06-22T07:32:22;19;16;
42410;PMS5003;28056;51.112;0.984;2023-06-22T07:34:49;13;12;
42410;PMS5003;28056;51.112;0.984;2023-06-22T07:37:17;15;13;
42410;PMS5003;28056;51.112;0.984;2023-06-22T07:39:44;16;11;
42410;PMS5003;28056;51.112;0.984;2023-06-22T07:42:12;14;13;
42410;PMS5003;28056;51.112;0.984;2023-06-22T07:44:39;14;13;
42410;PMS5003;28056;51.112;0.984;2023-06-22T07:47:07;12;12;
42410;PMS5003;28056;51.112;0.984;2023-06-22T07:49:34;16;15;
42410;PMS5003;28056;51.112;0.984;2023-06-22T07:52:01;15;13;
42410;PMS5003;28056;51.112;0.984;2023-06-22T07:54:29;18;16;
42410;PMS5003;28056;51.112;0.984;2023-06-22T07:56:56;21;20;
42410;PMS5003;28056;51.112;0.984;2023-06-22T07:59:24;22;20;
42410;PMS5003;28056;51.112;0.984;2023-06-22T08:01:51;25;25;
42410;PMS5003;28056;51.112;0.984;2023-06-22T08:04:18;18;17;
42410;PMS5003;28056;51.112;0.984;2023-06-22T08:06:46;16;16;
42410;PMS5003;28056;51.112;0.984;2023-06-22T08:09:14;12;11;
42410;PMS5003;28056;51.112;0.984;2023-06-22T08:11:41;16;15;
42410;PMS5003;28056;51.112;0.984;2023-06-22T08:14:09;12;12;
42410;PMS5003;28056;51.112;0.984;2023-06-22T08:16:36;11;11;
42410;PMS5003;28056;51.112;0.984;2023-06-22T08:19:03;13;11;
42410;PMS5003;28056;51.112;0.984;2023-06-22T08:21:31;13;11;
42410;PMS5003;28056;51.112;0.984;2023-06-22T08:23:58;10;9;
42410;PMS5003;28056;51.112;0.984;2023-06-22T08:26:26;10;10;
42410;PMS5003;28056;51.112;0.984;2023-06-22T08:28:53;11;11;
42410;PMS5003;28056;51.112;0.984;2023-06-22T08:31:21;9;9;
42410;PMS5003;28056;51.112;0.984;2023-06-22T08:33:48;11;11;
42410;PMS5003;28056;51.112;0.984;2023-06-22T08:36:16;10;10;
42410;PMS5003;28056;51.112;0.984;2023-06-22T08:38:43;13;11;
42410;PMS5003;28056;51.112;0.984;2023-06-22T08:41:10;11;11;
42410;PMS5003;28056;51.112;0.984;2023-06-22T08:43:38;13;10;
42410;PMS5003;28056;51.112;0.984;2023-06-22T08:46:05;11;11;
42410;PMS5003;28056;51.112;0.984;2023-06-22T08:48:33;10;10;
42410;PMS5003;28056;51.112;0.984;2023-06-22T08:51:00;15;15;
42410;PMS5003;28056;51.112;0.984;2023-06-22T08:53:27;11;11;
42410;PMS5003;28056;51.112;0.984;2023-06-22T08:55:55;12;11;
42410;PMS5003;28056;51.112;0.984;2023-06-22T08:58:22;9;9;
42410;PMS5003;28056;51.112;0.984;2023-06-22T09:00:50;10;9;
42410;PMS5003;28056;51.112;0.984;2023-06-22T09:03:17;13;11;
42410;PMS5003;28056;51.112;0.984;2023-06-22T09:05:44;12;10;
42410;PMS5003;28056;51.112;0.984;2023-06-22T09:08:12;12;11;
42410;PMS5003;28056;51.112;0.984;2023-06-22T09:10:39;13;12;
42410;PMS5003;28056;51.112;0.984;2023-06-22T09:13:07;11;10;
42410;PMS5003;28056;51.112;0.984;2023-06-22T09:15:34;12;10;
42410;PMS5003;28056;51.112;0.984;2023-06-22T09:18:01;12;8;
42410;PMS5003;28056;51.112;0.984;2023-06-22T09:20:29;10;10;
42410;PMS5003;28056;51.112;0.984;2023-06-22T09:22:56;10;8;
42410;PMS5003;28056;51.112;0.984;2023-06-22T09:25:23;16;13;
42410;PMS5003;28056;51.112;0.984;2023-06-22T09:27:51;9;9;
42410;PMS5003;28056;51.112;0.984;2023-06-22T09:30:18;11;11;
42410;PMS5003;28056;51.112;0.984;2023-06-22T09:32:46;12;11;
42410;PMS5003;28056;51.112;0.984;2023-06-22T09:35:13;12;11;
42410;PMS5003;28056;51.112;0.984;2023-06-22T09:37:41;8;8;
42410;PMS5003;28056;51.112;0.984;2023-06-22T09:40:08;7;7;
42410;PMS5003;28056;51.112;0.984;2023-06-22T09:42:35;9;9;
42410;PMS5003;28056;51.112;0.984;2023-06-22T09:45:03;13;11;
42410;PMS5003;28056;51.112;0.984;2023-06-22T09:47:31;13;12;
42410;PMS5003;28056;51.112;0.984;2023-06-22T09:49:59;10;10;
42410;PMS5003;28056;51.112;0.984;2023-06-22T09:52:27;10;10;
42410;PMS5003;28056;51.112;0.984;2023-06-22T09:54:54;11;10;
42410;PMS5003;28056;51.112;0.984;2023-06-22T09:57:22;10;10;
42410;PMS5003;28056;51.112;0.984;2023-06-22T09:59:49;10;9;
42410;PMS5003;28056;51.112;0.984;2023-06-22T10:02:16;16;14;
42410;PMS5003;28056;51.112;0.984;2023-06-22T10:04:44;11;11;
42410;PMS5003;28056;51.112;0.984;2023-06-22T10:07:12;10;9;
42410;PMS5003;28056;51.112;0.984;2023-06-22T10:09:39;10;10;
42410;PMS5003;28056;51.112;0.984;2023-06-22T10:12:07;14;13;
42410;PMS5003;28056;51.112;0.984;2023-06-22T10:14:35;10;9;
42410;PMS5003;28056;51.112;0.984;2023-06-22T10:17:02;8;8;
42410;PMS5003;28056;51.112;0.984;2023-06-22T10:19:29;10;9;
42410;PMS5003;28056;51.112;0.984;2023-06-22T10:21:57;8;8;
42410;PMS5003;28056;51.112;0.984;2023-06-22T10:24:24;9;9;
42410;PMS5003;28056;51.112;0.984;2023-06-22T10:26:52;11;10;
42410;PMS5003;28056;51.112;0.984;2023-06-22T10:29:19;10;10;
42410;PMS5003;28056;51.112;0.984;2023-06-22T10:31:47;9;8;
42410;PMS5003;28056;51.112;0.984;2023-06-22T10:34:14;9;9;
42410;PMS5003;28056;51.112;0.984;2023-06-22T10:36:42;10;9;
42410;PMS5003;28056;51.112;0.984;2023-06-22T10:39:09;10;9;
42410;PMS5003;28056;51.112;0.984;2023-06-22T10:41:37;8;6;
42410;PMS5003;28056;51.112;0.984;2023-06-22T10:44:04;7;7;
42410;PMS5003;28056;51.112;0.984;2023-06-22T10:46:31;12;8;
42410;PMS5003;28056;51.112;0.984;2023-06-22T10:48:59;10;8;
42410;PMS5003;28056;51.112;0.984;2023-06-22T10:51:26;9;9;
42410;PMS5003;28056;51.112;0.984;2023-06-22T10:53:53;8;8;
42410;PMS5003;28056;51.112;0.984;2023-06-22T10:56:20;5;5;
42410;PMS5003;28056;51.112;0.984;2023-06-22T10:58:48;7;7;
42410;PMS5003;28056;51.112;0.984;2023-06-22T11:01:16;6;6;
42410;PMS5003;28056;51.112;0.984;2023-06-22T11:03:43;6;6;
42410;PMS5003;28056;51.112;0.984;2023-06-22T11:06:11;10;6;
42410;PMS5003;28056;51.112;0.984;2023-06-22T11:08:38;11;11;
42410;PMS5003;28056;51.112;0.984;2023-06-22T11:11:06;8;8;
42410;PMS5003;28056;51.112;0.984;2023-06-22T11:13:33;9;9;
42410;PMS5003;28056;51.112;0.984;2023-06-22T11:16:00;8;8;
42410;PMS5003;28056;51.112;0.984;2023-06-22T11:18:27;8;8;
42410;PMS5003;28056;51.112;0.984;2023-06-22T11:20:54;8;7;
42410;PMS5003;28056;51.112;0.984;2023-06-22T11:23:22;9;9;
42410;PMS5003;28056;51.112;0.984;2023-06-22T11:25:49;11;8;
42410;PMS5003;28056;51.112;0.984;2023-06-22T11:28:17;8;8;
42410;PMS5003;28056;51.112;0.984;2023-06-22T11:30:44;7;7;
42410;PMS5003;28056;51.112;0.984;2023-06-22T11:33:11;6;6;
42410;PMS5003;28056;51.112;0.984;2023-06-22T11:35:39;4;4;
42410;PMS5003;28056;51.112;0.984;2023-06-22T11:38:06;6;6;
42410;PMS5003;28056;51.112;0.984;2023-06-22T11:40:34;8;7;
42410;PMS5003;28056;51.112;0.984;2023-06-22T11:43:01;8;7;
42410;PMS5003;28056;51.112;0.984;2023-06-22T11:45:28;10;10;
42410;PMS5003;28056;51.112;0.984;2023-06-22T11:47:55;7;7;
42410;PMS5003;28056;51.112;0.984;2023-06-22T11:50:23;9;8;
42410;PMS5003;28056;51.112;0.984;2023-06-22T11:52:50;7;7;
42410;PMS5003;28056;51.112;0.984;2023-06-22T11:55:17;8;6;
42410;PMS5003;28056;51.112;0.984;2023-06-22T11:57:54;11;8;
42410;PMS5003;28056;51.112;0.984;2023-06-22T12:00:22;6;6;
42410;PMS5003;28056;51.112;0.984;2023-06-22T12:02:49;7;7;
42410;PMS5003;28056;51.112;0.984;2023-06-22T12:05:17;7;7;
42410;PMS5003;28056;51.112;0.984;2023-06-22T12:07:46;8;8;
42410;PMS5003;28056;51.112;0.984;2023-06-22T12:10:13;8;8;
42410;PMS5003;28056;51.112;0.984;2023-06-22T12:12:40;8;6;
42410;PMS5003;28056;51.112;0.984;2023-06-22T12:15:08;10;10;
42410;PMS5003;28056;51.112;0.984;2023-06-22T12:17:37;9;7;
42410;PMS5003;28056;51.112;0.984;2023-06-22T12:20:05;5;5;
42410;PMS5003;28056;51.112;0.984;2023-06-22T12:22:34;6;6;
42410;PMS5003;28056;51.112;0.984;2023-06-22T12:25:02;7;7;
42410;PMS5003;28056;51.112;0.984;2023-06-22T12:27:29;5;5;
42410;PMS5003;28056;51.112;0.984;2023-06-22T12:29:56;6;6;
42410;PMS5003;28056;51.112;0.984;2023-06-22T12:32:23;6;5;
42410;PMS5003;28056;51.112;0.984;2023-06-22T12:34:51;7;7;
42410;PMS5003;28056;51.112;0.984;2023-06-22T12:37:18;10;10;
42410;PMS5003;28056;51.112;0.984;2023-06-22T12:39:45;9;9;
42410;PMS5003;28056;51.112;0.984;2023-06-22T12:42:13;11;11;
42410;PMS5003;28056;51.112;0.984;2023-06-22T12:44:41;13;13;
42410;PMS5003;28056;51.112;0.984;2023-06-22T12:47:09;15;15;
42410;PMS5003;28056;51.112;0.984;2023-06-22T12:49:36;17;16;
42410;PMS5003;28056;51.112;0.984;2023-06-22T12:52:08;18;18;
42410;PMS5003;28056;51.112;0.984;2023-06-22T12:54:36;16;16;
42410;PMS5003;28056;51.112;0.984;2023-06-22T12:57:03;19;16;
42410;PMS5003;28056;51.112;0.984;2023-06-22T12:59:31;23;22;
42410;PMS5003;28056;51.112;0.984;2023-06-22T13:01:59;14;13;
42410;PMS5003;28056;51.112;0.984;2023-06-22T13:04:26;21;21;
42410;PMS5003;28056;51.112;0.984;2023-06-22T13:06:53;18;16;
42410;PMS5003;28056;51.112;0.984;2023-06-22T13:09:20;21;19;
42410;PMS5003;28056;51.112;0.984;2023-06-22T13:11:48;22;19;
42410;PMS5003;28056;51.112;0.984;2023-06-22T13:14:15;17;16;
42410;PMS5003;28056;51.112;0.984;2023-06-22T13:16:42;18;17;
42410;PMS5003;28056;51.112;0.984;2023-06-22T13:19:10;18;18;
42410;PMS5003;28056;51.112;0.984;2023-06-22T13:21:37;25;20;
42410;PMS5003;28056;51.112;0.984;2023-06-22T13:24:04;19;16;
42410;PMS5003;28056;51.112;0.984;2023-06-22T13:26:33;18;16;
42410;PMS5003;28056;51.112;0.984;2023-06-22T13:29:00;16;16;
42410;PMS5003;28056;51.112;0.984;2023-06-22T13:31:28;19;16;
42410;PMS5003;28056;51.112;0.984;2023-06-22T13:33:55;21;19;
42410;PMS5003;28056;51.112;0.984;2023-06-22T13:36:22;20;20;
42410;PMS5003;28056;51.112;0.984;2023-06-22T13:38:49;17;15;
42410;PMS5003;28056;51.112;0.984;2023-06-22T13:41:16;17;14;
42410;PMS5003;28056;51.112;0.984;2023-06-22T13:43:44;21;17;
42410;PMS5003;28056;51.112;0.984;2023-06-22T13:46:11;18;17;
42410;PMS5003;28056;51.112;0.984;2023-06-22T13:48:38;14;14;
42410;PMS5003;28056;51.112;0.984;2023-06-22T13:51:05;20;17;
42410;PMS5003;28056;51.112;0.984;2023-06-22T13:53:38;16;16;
42410;PMS5003;28056;51.112;0.984;2023-06-22T13:56:05;20;19;
42410;PMS5003;28056;51.112;0.984;2023-06-22T13:58:33;22;18;
42410;PMS5003;28056;51.112;0.984;2023-06-22T14:01:00;22;20;
42410;PMS5003;28056;51.112;0.984;2023-06-22T14:03:28;18;17;
42410;PMS5003;28056;51.112;0.984;2023-06-22T14:05:55;18;18;
42410;PMS5003;28056;51.112;0.984;2023-06-22T14:08:27;17;17;
42410;PMS5003;28056;51.112;0.984;2023-06-22T14:10:54;18;16;
42410;PMS5003;28056;51.112;0.984;2023-06-22T14:13:22;15;14;
42410;PMS5003;28056;51.112;0.984;2023-06-22T14:15:49;18;18;
42410;PMS5003;28056;51.112;0.984;2023-06-22T14:18:16;21;21;
42410;PMS5003;28056;51.112;0.984;2023-06-22T14:20:43;19;18;
42410;PMS5003;28056;51.112;0.984;2023-06-22T14:23:11;23;16;
42410;PMS5003;28056;51.112;0.984;2023-06-22T14:25:39;14;14;
42410;PMS5003;28056;51.112;0.984;2023-06-22T14:28:06;19;14;
42410;PMS5003;28056;51.112;0.984;2023-06-22T14:30:33;22;20;
42410;PMS5003;28056;51.112;0.984;2023-06-22T14:33:00;15;15;
42410;PMS5003;28056;51.112;0.984;2023-06-22T14:35:27;15;15;
42410;PMS5003;28056;51.112;0.984;2023-06-22T14:37:55;14;14;
42410;PMS5003;28056;51.112;0.984;2023-06-22T14:40:22;21;14;
42410;PMS5003;28056;51.112;0.984;2023-06-22T14:42:49;20;18;
42410;PMS5003;28056;51.112;0.984;2023-06-22T14:45:17;16;15;
42410;PMS5003;28056;51.112;0.984;2023-06-22T14:47:44;16;16;
42410;PMS5003;28056;51.112;0.984;2023-06-22T14:50:11;13;13;
42410;PMS5003;28056;51.112;0.984;2023-06-22T14:52:39;14;14;
42410;PMS5003;28056;51.112;0.984;2023-06-22T14:55:06;15;15;
42410;PMS5003;28056;51.112;0.984;2023-06-22T14:57:33;14;14;
42410;PMS5003;28056;51.112;0.984;2023-06-22T15:00:01;14;14;
42410;PMS5003;28056;51.112;0.984;2023-06-22T15:02:29;12;10;
42410;PMS5003;28056;51.112;0.984;2023-06-22T15:04:56;10;10;
42410;PMS5003;28056;51.112;0.984;2023-06-22T15:07:29;9;8;
42410;PMS5003;28056;51.112;0.984;2023-06-22T15:09:56;10;10;
42410;PMS5003;28056;51.112;0.984;2023-06-22T15:12:24;10;8;
42410;PMS5003;28056;51.112;0.984;2023-06-22T15:14:51;11;11;
42410;PMS5003;28056;51.112;0.984;2023-06-22T15:17:19;12;8;
42410;PMS5003;28056;51.112;0.984;2023-06-22T15:19:47;10;9;
42410;PMS5003;28056;51.112;0.984;2023-06-22T15:22:14;8;8;
42410;PMS5003;28056;51.112;0.984;2023-06-22T15:24:42;9;9;
42410;PMS5003;28056;51.112;0.984;2023-06-22T15:27:09;9;9;
42410;PMS5003;28056;51.112;0.984;2023-06-22T15:29:36;10;10;
42410;PMS5003;28056;51.112;0.984;2023-06-22T15:32:04;12;11;
42410;PMS5003;28056;51.112;0.984;2023-06-22T15:34:32;8;8;
42410;PMS5003;28056;51.112;0.984;2023-06-22T15:36:59;9;9;
42410;PMS5003;28056;51.112;0.984;2023-06-22T15:39:26;7;6;
42410;PMS5003;28056;51.112;0.984;2023-06-22T15:41:54;9;9;
42410;PMS5003;28056;51.112;0.984;2023-06-22T15:44:21;6;6;
42410;PMS5003;28056;51.112;0.984;2023-06-22T15:46:48;7;7;
42410;PMS5003;28056;51.112;0.984;2023-06-22T15:49:16;9;7;
42410;PMS5003;28056;51.112;0.984;2023-06-22T15:51:44;7;7;
42410;PMS5003;28056;51.112;0.984;2023-06-22T15:54:12;8;7;
42410;PMS5003;28056;51.112;0.984;2023-06-22T15:56:39;8;8;
42410;PMS5003;28056;51.112;0.984;2023-06-22T15:59:07;8;6;
42410;PMS5003;28056;51.112;0.984;2023-06-22T16:01:34;7;7;
42410;PMS5003;28056;51.112;0.984;2023-06-22T16:04:01;10;10;
42410;PMS5003;28056;51.112;0.984;2023-06-22T16:06:29;11;9;
42410;PMS5003;28056;51.112;0.984;2023-06-22T16:08:56;7;7;
42410;PMS5003;28056;51.112;0.984;2023-06-22T16:11:24;10;8;
42410;PMS5003;28056;51.112;0.984;2023-06-22T16:13:52;9;9;
42410;PMS5003;28056;51.112;0.984;2023-06-22T16:16:19;9;8;
42410;PMS5003;28056;51.112;0.984;2023-06-22T16:18:47;8;8;
42410;PMS5003;28056;51.112;0.984;2023-06-22T16:21:14;8;7;
42410;PMS5003;28056;51.112;0.984;2023-06-22T16:23:42;9;8;
42410;PMS5003;28056;51.112;0.984;2023-06-22T16:26:10;10;10;
42410;PMS5003;28056;51.112;0.984;2023-06-22T16:28:37;11;9;
42410;PMS5003;28056;51.112;0.984;2023-06-22T16:31:05;10;10;